sensor_id;sensor_type;location;lat;lon;timestamp;P1;durP1;ratioP1;P2;durP2;ratioP2
6626;SDS011;3349;49.830;8.748;2024-02-21T00:00:44;15.35;;;8.60;;
6626;SDS011;3349;49.830;8.748;2024-02-21T00:03:11;20.15;;;8.73;;
6626;SDS011;3349;49.830;8.748;2024-02-21T00:05:38;18.73;;;8.88;;
6626;SDS011;3349;49.830;8.748;2024-02-21T00:08:05;22.35;;;8.27;;
6626;SDS011;3349;49.830;8.748;2024-02-21T00:10:31;17.65;;;9.30;;
6626;SDS011;3349;49.830;8.748;2024-02-21T00:12:59;18.40;;;9.15;;
6626;SDS011;3349;49.830;8.748;2024-02-21T00:15:26;25.08;;;8.68;;
6626;SDS011;3349;49.830;8.748;2024-02-21T00:17:53;17.42;;;8.40;;
6626;SDS011;3349;49.830;8.748;2024-02-21T00:20:20;14.85;;;8.68;;
6626;SDS011;3349;49.830;8.748;2024-02-21T00:22:46;17.40;;;8.80;;
6626;SDS011;3349;49.830;8.748;2024-02-21T00:25:13;21.88;;;8.73;;
6626;SDS011;3349;49.830;8.748;2024-02-21T00:27:40;17.48;;;8.50;;
6626;SDS011;3349;49.830;8.748;2024-02-21T00:30:08;17.90;;;8.73;;
6626;SDS011;3349;49.830;8.748;2024-02-21T00:32:36;16.70;;;8.27;;
6626;SDS011;3349;49.830;8.748;2024-02-21T00:35:03;20.20;;;9.40;;
6626;SDS011;3349;49.830;8.748;2024-02-21T00:37:30;15.43;;;8.23;;
6626;SDS011;3349;49.830;8.748;2024-02-21T00:39:57;19.60;;;9.40;;
6626;SDS011;3349;49.830;8.748;2024-02-21T00:42:24;17.58;;;8.43;;
6626;SDS011;3349;49.830;8.748;2024-02-21T00:44:50;13.35;;;8.13;;
6626;SDS011;3349;49.830;8.748;2024-02-21T00:47:18;15.80;;;8.70;;
6626;SDS011;3349;49.830;8.748;2024-02-21T00:49:45;18.75;;;8.60;;
6626;SDS011;3349;49.830;8.748;2024-02-21T00:52:11;14.85;;;8.35;;
6626;SDS011;3349;49.830;8.748;2024-02-21T00:54:38;15.77;;;8.38;;
6626;SDS011;3349;49.830;8.748;2024-02-21T00:57:05;12.57;;;7.60;;
6626;SDS011;3349;49.830;8.748;2024-02-21T00:59:31;19.90;;;7.80;;
6626;SDS011;3349;49.830;8.748;2024-02-21T01:01:58;14.52;;;7.32;;
6626;SDS011;3349;49.830;8.748;2024-02-21T01:04:26;16.33;;;7.47;;
6626;SDS011;3349;49.830;8.748;2024-02-21T01:06:53;17.23;;;7.18;;
6626;SDS011;3349;49.830;8.748;2024-02-21T01:09:19;12.00;;;7.47;;
6626;SDS011;3349;49.830;8.748;2024-02-21T01:11:46;12.90;;;6.82;;
6626;SDS011;3349;49.830;8.748;2024-02-21T01:14:13;17.15;;;6.85;;
6626;SDS011;3349;49.830;8.748;2024-02-21T01:16:39;15.57;;;8.05;;
6626;SDS011;3349;49.830;8.748;2024-02-21T01:19:06;17.15;;;7.30;;
6626;SDS011;3349;49.830;8.748;2024-02-21T01:21:34;17.48;;;7.22;;
6626;SDS011;3349;49.830;8.748;2024-02-21T01:24:01;14.25;;;7.43;;
6626;SDS011;3349;49.830;8.748;2024-02-21T01:26:27;13.65;;;7.03;;
6626;SDS011;3349;49.830;8.748;2024-02-21T01:28:54;11.70;;;6.50;;
6626;SDS011;3349;49.830;8.748;2024-02-21T01:31:21;16.73;;;7.32;;
6626;SDS011;3349;49.830;8.748;2024-02-21T01:33:47;14.65;;;7.45;;
6626;SDS011;3349;49.830;8.748;2024-02-21T01:36:14;15.15;;;7.72;;
6626;SDS011;3349;49.830;8.748;2024-02-21T01:38:42;18.65;;;8.00;;
6626;SDS011;3349;49.830;8.748;2024-02-21T01:41:09;17.25;;;8.40;;
6626;SDS011;3349;49.830;8.748;2024-02-21T01:43:35;17.42;;;8.55;;
6626;SDS011;3349;49.830;8.748;2024-02-21T01:46:02;19.30;;;8.20;;
6626;SDS011;3349;49.830;8.748;2024-02-21T01:48:29;17.95;;;8.07;;
6626;SDS011;3349;49.830;8.748;2024-02-21T01:50:56;16.67;;;8.80;;
6626;SDS011;3349;49.830;8.748;2024-02-21T01:53:25;20.05;;;8.50;;
6626;SDS011;3349;49.830;8.748;2024-02-21T01:55:55;20.27;;;8.35;;
6626;SDS011;3349;49.830;8.748;2024-02-21T01:58:22;20.73;;;8.85;;
6626;SDS011;3349;49.830;8.748;2024-02-21T02:00:49;18.38;;;8.45;;
6626;SDS011;3349;49.830;8.748;2024-02-21T02:03:17;16.92;;;8.20;;
6626;SDS011;3349;49.830;8.748;2024-02-21T02:05:44;15.65;;;8.18;;
6626;SDS011;3349;49.830;8.748;2024-02-21T02:08:11;17.45;;;8.27;;
6626;SDS011;3349;49.830;8.748;2024-02-21T02:10:38;16.55;;;8.25;;
6626;SDS011;3349;49.830;8.748;2024-02-21T02:13:07;19.95;;;8.15;;
6626;SDS011;3349;49.830;8.748;2024-02-21T02:15:37;12.85;;;7.80;;
6626;SDS011;3349;49.830;8.748;2024-02-21T02:18:04;16.92;;;8.50;;
6626;SDS011;3349;49.830;8.748;2024-02-21T02:20:31;19.23;;;8.70;;
6626;SDS011;3349;49.830;8.748;2024-02-21T02:22:58;19.42;;;8.50;;
6626;SDS011;3349;49.830;8.748;2024-02-21T02:25:27;14.40;;;7.68;;
6626;SDS011;3349;49.830;8.748;2024-02-21T02:27:53;17.55;;;8.32;;
6626;SDS011;3349;49.830;8.748;2024-02-21T02:30:20;16.60;;;7.97;;
6626;SDS011;3349;49.830;8.748;2024-02-21T02:32:47;17.30;;;8.38;;
6626;SDS011;3349;49.830;8.748;2024-02-21T02:35:14;17.45;;;8.10;;
6626;SDS011;3349;49.830;8.748;2024-02-21T02:37:47;18.33;;;8.15;;
6626;SDS011;3349;49.830;8.748;2024-02-21T02:40:14;18.58;;;8.43;;
6626;SDS011;3349;49.830;8.748;2024-02-21T02:42:42;21.02;;;9.05;;
6626;SDS011;3349;49.830;8.748;2024-02-21T02:45:09;16.90;;;7.88;;
6626;SDS011;3349;49.830;8.748;2024-02-21T02:47:36;19.02;;;7.65;;
6626;SDS011;3349;49.830;8.748;2024-02-21T02:50:03;19.10;;;7.70;;
6626;SDS011;3349;49.830;8.748;2024-02-21T02:52:31;19.15;;;8.20;;
6626;SDS011;3349;49.830;8.748;2024-02-21T02:54:58;21.38;;;8.18;;
6626;SDS011;3349;49.830;8.748;2024-02-21T02:57:24;15.45;;;8.02;;
6626;SDS011;3349;49.830;8.748;2024-02-21T02:59:52;17.92;;;8.35;;
6626;SDS011;3349;49.830;8.748;2024-02-21T03:02:19;18.50;;;8.20;;
6626;SDS011;3349;49.830;8.748;2024-02-21T03:04:45;15.90;;;7.70;;
6626;SDS011;3349;49.830;8.748;2024-02-21T03:07:13;20.35;;;8.90;;
6626;SDS011;3349;49.830;8.748;2024-02-21T03:09:40;19.77;;;8.40;;
6626;SDS011;3349;49.830;8.748;2024-02-21T03:12:08;18.63;;;7.95;;
6626;SDS011;3349;49.830;8.748;2024-02-21T03:14:35;20.02;;;8.30;;
6626;SDS011;3349;49.830;8.748;2024-02-21T03:17:03;14.52;;;7.75;;
6626;SDS011;3349;49.830;8.748;2024-02-21T03:19:30;17.58;;;7.72;;
6626;SDS011;3349;49.830;8.748;2024-02-21T03:21:56;17.73;;;7.97;;
6626;SDS011;3349;49.830;8.748;2024-02-21T03:24:23;16.02;;;7.93;;
6626;SDS011;3349;49.830;8.748;2024-02-21T03:26:50;17.48;;;8.45;;
6626;SDS011;3349;49.830;8.748;2024-02-21T03:29:16;15.70;;;7.97;;
6626;SDS011;3349;49.830;8.748;2024-02-21T03:31:43;17.75;;;7.90;;
6626;SDS011;3349;49.830;8.748;2024-02-21T03:34:11;19.13;;;8.60;;
6626;SDS011;3349;49.830;8.748;2024-02-21T03:36:38;18.60;;;8.43;;
6626;SDS011;3349;49.830;8.748;2024-02-21T03:39:04;15.57;;;7.68;;
6626;SDS011;3349;49.830;8.748;2024-02-21T03:41:33;15.15;;;8.13;;
6626;SDS011;3349;49.830;8.748;2024-02-21T03:43:59;18.85;;;8.35;;
6626;SDS011;3349;49.830;8.748;2024-02-21T03:46:26;15.93;;;7.75;;
6626;SDS011;3349;49.830;8.748;2024-02-21T03:48:53;13.40;;;7.90;;
6626;SDS011;3349;49.830;8.748;2024-02-21T03:51:21;19.33;;;8.38;;
6626;SDS011;3349;49.830;8.748;2024-02-21T03:53:48;20.88;;;7.82;;
6626;SDS011;3349;49.830;8.748;2024-02-21T03:56:14;18.50;;;8.48;;
6626;SDS011;3349;49.830;8.748;2024-02-21T03:58:41;18.08;;;7.72;;
6626;SDS011;3349;49.830;8.748;2024-02-21T04:01:08;19.15;;;8.32;;
6626;SDS011;3349;49.830;8.748;2024-02-21T04:03:34;21.67;;;8.20;;
6626;SDS011;3349;49.830;8.748;2024-02-21T04:06:01;20.35;;;8.68;;
6626;SDS011;3349;49.830;8.748;2024-02-21T04:08:29;19.40;;;8.07;;
6626;SDS011;3349;49.830;8.748;2024-02-21T04:10:55;16.63;;;8.10;;
6626;SDS011;3349;49.830;8.748;2024-02-21T04:13:22;18.65;;;7.38;;
6626;SDS011;3349;49.830;8.748;2024-02-21T04:15:49;16.85;;;7.90;;
6626;SDS011;3349;49.830;8.748;2024-02-21T04:18:15;17.55;;;8.13;;
6626;SDS011;3349;49.830;8.748;2024-02-21T04:20:42;15.32;;;8.18;;
6626;SDS011;3349;49.830;8.748;2024-02-21T04:23:09;22.10;;;9.05;;
6626;SDS011;3349;49.830;8.748;2024-02-21T04:25:37;14.63;;;7.57;;
6626;SDS011;3349;49.830;8.748;2024-02-21T04:28:04;19.77;;;7.93;;
6626;SDS011;3349;49.830;8.748;2024-02-21T04:30:31;17.85;;;8.23;;
6626;SDS011;3349;49.830;8.748;2024-02-21T04:33:05;22.55;;;8.45;;
6626;SDS011;3349;49.830;8.748;2024-02-21T04:35:31;19.90;;;8.10;;
6626;SDS011;3349;49.830;8.748;2024-02-21T04:37:58;17.48;;;8.00;;
6626;SDS011;3349;49.830;8.748;2024-02-21T04:40:24;16.13;;;7.80;;
6626;SDS011;3349;49.830;8.748;2024-02-21T04:42:52;17.98;;;8.15;;
6626;SDS011;3349;49.830;8.748;2024-02-21T04:45:20;20.52;;;8.05;;
6626;SDS011;3349;49.830;8.748;2024-02-21T04:47:46;16.85;;;8.05;;
6626;SDS011;3349;49.830;8.748;2024-02-21T04:50:13;17.20;;;8.20;;
6626;SDS011;3349;49.830;8.748;2024-02-21T04:52:40;14.77;;;7.72;;
6626;SDS011;3349;49.830;8.748;2024-02-21T04:55:07;13.18;;;7.53;;
6626;SDS011;3349;49.830;8.748;2024-02-21T04:57:34;18.02;;;8.60;;
6626;SDS011;3349;49.830;8.748;2024-02-21T05:00:02;13.75;;;7.13;;
6626;SDS011;3349;49.830;8.748;2024-02-21T05:02:29;18.95;;;7.07;;
6626;SDS011;3349;49.830;8.748;2024-02-21T05:04:56;14.50;;;7.20;;
6626;SDS011;3349;49.830;8.748;2024-02-21T05:07:23;17.38;;;7.80;;
6626;SDS011;3349;49.830;8.748;2024-02-21T05:09:49;17.55;;;7.95;;
6626;SDS011;3349;49.830;8.748;2024-02-21T05:12:16;16.88;;;7.47;;
6626;SDS011;3349;49.830;8.748;2024-02-21T05:14:42;13.95;;;7.55;;
6626;SDS011;3349;49.830;8.748;2024-02-21T05:17:10;15.80;;;8.13;;
6626;SDS011;3349;49.830;8.748;2024-02-21T05:19:37;13.02;;;7.88;;
6626;SDS011;3349;49.830;8.748;2024-02-21T05:22:04;16.05;;;7.10;;
6626;SDS011;3349;49.830;8.748;2024-02-21T05:24:30;15.02;;;7.03;;
6626;SDS011;3349;49.830;8.748;2024-02-21T05:26:57;13.27;;;5.80;;
6626;SDS011;3349;49.830;8.748;2024-02-21T05:29:24;12.18;;;5.65;;
6626;SDS011;3349;49.830;8.748;2024-02-21T05:31:57;12.18;;;5.40;;
6626;SDS011;3349;49.830;8.748;2024-02-21T05:34:25;13.85;;;5.30;;
6626;SDS011;3349;49.830;8.748;2024-02-21T05:36:52;15.82;;;5.60;;
6626;SDS011;3349;49.830;8.748;2024-02-21T05:39:19;15.77;;;5.22;;
6626;SDS011;3349;49.830;8.748;2024-02-21T05:41:47;12.63;;;4.97;;
6626;SDS011;3349;49.830;8.748;2024-02-21T05:44:15;13.15;;;5.65;;
6626;SDS011;3349;49.830;8.748;2024-02-21T05:46:41;13.48;;;5.60;;
6626;SDS011;3349;49.830;8.748;2024-02-21T05:49:08;14.82;;;5.55;;
6626;SDS011;3349;49.830;8.748;2024-02-21T05:51:36;16.05;;;5.40;;
6626;SDS011;3349;49.830;8.748;2024-02-21T05:54:03;13.18;;;5.25;;
6626;SDS011;3349;49.830;8.748;2024-02-21T05:56:29;15.93;;;5.00;;
6626;SDS011;3349;49.830;8.748;2024-02-21T05:58:56;11.38;;;4.70;;
6626;SDS011;3349;49.830;8.748;2024-02-21T06:01:23;10.20;;;5.45;;
6626;SDS011;3349;49.830;8.748;2024-02-21T06:03:49;9.05;;;4.53;;
6626;SDS011;3349;49.830;8.748;2024-02-21T06:06:16;15.27;;;4.90;;
6626;SDS011;3349;49.830;8.748;2024-02-21T06:08:44;13.25;;;4.53;;
6626;SDS011;3349;49.830;8.748;2024-02-21T06:11:10;16.83;;;5.18;;
6626;SDS011;3349;49.830;8.748;2024-02-21T06:13:38;15.93;;;5.35;;
6626;SDS011;3349;49.830;8.748;2024-02-21T06:16:06;18.73;;;4.95;;
6626;SDS011;3349;49.830;8.748;2024-02-21T06:18:34;16.45;;;5.68;;
6626;SDS011;3349;49.830;8.748;2024-02-21T06:21:02;12.52;;;4.88;;
6626;SDS011;3349;49.830;8.748;2024-02-21T06:23:29;15.43;;;5.72;;
6626;SDS011;3349;49.830;8.748;2024-02-21T06:25:57;13.95;;;5.65;;
6626;SDS011;3349;49.830;8.748;2024-02-21T06:28:23;13.55;;;4.80;;
6626;SDS011;3349;49.830;8.748;2024-02-21T06:30:50;16.30;;;5.47;;
6626;SDS011;3349;49.830;8.748;2024-02-21T06:33:17;11.38;;;4.78;;
6626;SDS011;3349;49.830;8.748;2024-02-21T06:35:47;14.85;;;5.88;;
6626;SDS011;3349;49.830;8.748;2024-02-21T06:38:17;13.75;;;4.70;;
6626;SDS011;3349;49.830;8.748;2024-02-21T06:40:43;15.88;;;5.20;;
6626;SDS011;3349;49.830;8.748;2024-02-21T06:43:16;9.18;;;4.57;;
6626;SDS011;3349;49.830;8.748;2024-02-21T06:45:43;10.23;;;4.88;;
6626;SDS011;3349;49.830;8.748;2024-02-21T06:48:12;16.50;;;5.38;;
6626;SDS011;3349;49.830;8.748;2024-02-21T06:50:39;13.15;;;6.00;;
6626;SDS011;3349;49.830;8.748;2024-02-21T06:53:05;13.43;;;5.25;;
6626;SDS011;3349;49.830;8.748;2024-02-21T06:55:32;18.08;;;5.65;;
6626;SDS011;3349;49.830;8.748;2024-02-21T06:57:59;17.85;;;5.38;;
6626;SDS011;3349;49.830;8.748;2024-02-21T07:00:28;15.30;;;5.55;;
6626;SDS011;3349;49.830;8.748;2024-02-21T07:02:54;18.33;;;5.07;;
6626;SDS011;3349;49.830;8.748;2024-02-21T07:05:21;14.27;;;5.38;;
6626;SDS011;3349;49.830;8.748;2024-02-21T07:07:48;11.73;;;4.55;;
6626;SDS011;3349;49.830;8.748;2024-02-21T07:10:14;13.32;;;4.85;;
6626;SDS011;3349;49.830;8.748;2024-02-21T07:12:41;16.60;;;6.65;;
6626;SDS011;3349;49.830;8.748;2024-02-21T07:15:08;16.48;;;6.00;;
6626;SDS011;3349;49.830;8.748;2024-02-21T07:17:36;17.58;;;6.25;;
6626;SDS011;3349;49.830;8.748;2024-02-21T07:20:03;13.48;;;5.15;;
6626;SDS011;3349;49.830;8.748;2024-02-21T07:22:31;17.90;;;6.97;;
6626;SDS011;3349;49.830;8.748;2024-02-21T07:24:57;16.95;;;5.40;;
6626;SDS011;3349;49.830;8.748;2024-02-21T07:27:24;12.80;;;4.90;;
6626;SDS011;3349;49.830;8.748;2024-02-21T07:29:53;15.07;;;5.05;;
6626;SDS011;3349;49.830;8.748;2024-02-21T07:32:20;11.35;;;5.32;;
6626;SDS011;3349;49.830;8.748;2024-02-21T07:34:48;17.10;;;5.18;;
6626;SDS011;3349;49.830;8.748;2024-02-21T07:37:14;16.13;;;5.68;;
6626;SDS011;3349;49.830;8.748;2024-02-21T07:39:41;18.67;;;5.15;;
6626;SDS011;3349;49.830;8.748;2024-02-21T07:42:07;16.45;;;4.82;;
6626;SDS011;3349;49.830;8.748;2024-02-21T07:44:34;16.80;;;6.03;;
6626;SDS011;3349;49.830;8.748;2024-02-21T07:47:01;15.15;;;5.97;;
6626;SDS011;3349;49.830;8.748;2024-02-21T07:49:27;11.85;;;5.13;;
6626;SDS011;3349;49.830;8.748;2024-02-21T07:51:55;14.77;;;5.50;;
6626;SDS011;3349;49.830;8.748;2024-02-21T07:54:22;15.25;;;4.63;;
6626;SDS011;3349;49.830;8.748;2024-02-21T07:56:49;11.88;;;4.30;;
6626;SDS011;3349;49.830;8.748;2024-02-21T07:59:15;13.60;;;4.70;;
6626;SDS011;3349;49.830;8.748;2024-02-21T08:01:43;16.40;;;4.95;;
6626;SDS011;3349;49.830;8.748;2024-02-21T08:04:10;14.25;;;5.22;;
6626;SDS011;3349;49.830;8.748;2024-02-21T08:06:37;10.25;;;4.88;;
6626;SDS011;3349;49.830;8.748;2024-02-21T08:09:05;11.48;;;4.38;;
6626;SDS011;3349;49.830;8.748;2024-02-21T08:11:31;15.13;;;5.07;;
6626;SDS011;3349;49.830;8.748;2024-02-21T08:13:58;13.50;;;4.40;;
6626;SDS011;3349;49.830;8.748;2024-02-21T08:16:26;11.63;;;4.82;;
6626;SDS011;3349;49.830;8.748;2024-02-21T08:18:52;13.38;;;4.70;;
6626;SDS011;3349;49.830;8.748;2024-02-21T08:21:19;10.10;;;4.13;;
6626;SDS011;3349;49.830;8.748;2024-02-21T08:23:46;11.63;;;4.57;;
6626;SDS011;3349;49.830;8.748;2024-02-21T08:26:17;10.88;;;4.45;;
6626;SDS011;3349;49.830;8.748;2024-02-21T08:28:44;9.48;;;3.97;;
6626;SDS011;3349;49.830;8.748;2024-02-21T08:31:11;10.65;;;4.25;;
6626;SDS011;3349;49.830;8.748;2024-02-21T08:33:44;14.32;;;4.78;;
6626;SDS011;3349;49.830;8.748;2024-02-21T08:36:16;14.65;;;4.80;;
6626;SDS011;3349;49.830;8.748;2024-02-21T08:38:43;13.25;;;4.30;;
6626;SDS011;3349;49.830;8.748;2024-02-21T08:41:10;8.55;;;3.83;;
6626;SDS011;3349;49.830;8.748;2024-02-21T08:43:38;11.55;;;4.30;;
6626;SDS011;3349;49.830;8.748;2024-02-21T08:46:05;11.27;;;4.25;;
6626;SDS011;3349;49.830;8.748;2024-02-21T08:48:31;9.82;;;4.20;;
6626;SDS011;3349;49.830;8.748;2024-02-21T08:50:58;7.63;;;4.07;;
6626;SDS011;3349;49.830;8.748;2024-02-21T08:53:25;9.80;;;3.85;;
6626;SDS011;3349;49.830;8.748;2024-02-21T08:55:51;11.98;;;4.18;;
6626;SDS011;3349;49.830;8.748;2024-02-21T08:58:18;11.02;;;4.10;;
6626;SDS011;3349;49.830;8.748;2024-02-21T09:00:47;15.40;;;5.35;;
6626;SDS011;3349;49.830;8.748;2024-02-21T09:03:14;10.75;;;4.30;;
6626;SDS011;3349;49.830;8.748;2024-02-21T09:05:42;13.93;;;4.22;;
6626;SDS011;3349;49.830;8.748;2024-02-21T09:08:09;11.23;;;4.45;;
6626;SDS011;3349;49.830;8.748;2024-02-21T09:10:36;12.63;;;3.75;;
6626;SDS011;3349;49.830;8.748;2024-02-21T09:13:02;10.48;;;4.25;;
6626;SDS011;3349;49.830;8.748;2024-02-21T09:15:29;10.80;;;4.07;;
6626;SDS011;3349;49.830;8.748;2024-02-21T09:17:58;15.70;;;4.82;;
6626;SDS011;3349;49.830;8.748;2024-02-21T09:20:24;11.88;;;4.95;;
6626;SDS011;3349;49.830;8.748;2024-02-21T09:22:51;13.57;;;5.30;;
6626;SDS011;3349;49.830;8.748;2024-02-21T09:25:18;12.05;;;4.72;;
6626;SDS011;3349;49.830;8.748;2024-02-21T09:27:44;10.27;;;4.70;;
6626;SDS011;3349;49.830;8.748;2024-02-21T09:30:11;10.50;;;4.75;;
6626;SDS011;3349;49.830;8.748;2024-02-21T09:32:39;9.20;;;4.70;;
6626;SDS011;3349;49.830;8.748;2024-02-21T09:35:07;14.43;;;5.18;;
6626;SDS011;3349;49.830;8.748;2024-02-21T09:37:34;11.68;;;5.28;;
6626;SDS011;3349;49.830;8.748;2024-02-21T09:40:01;12.10;;;4.50;;
6626;SDS011;3349;49.830;8.748;2024-02-21T09:42:30;9.93;;;4.80;;
6626;SDS011;3349;49.830;8.748;2024-02-21T09:45:03;12.82;;;5.13;;
6626;SDS011;3349;49.830;8.748;2024-02-21T09:47:37;10.60;;;5.18;;
6626;SDS011;3349;49.830;8.748;2024-02-21T09:50:11;10.32;;;5.00;;
6626;SDS011;3349;49.830;8.748;2024-02-21T09:52:40;12.35;;;4.72;;
6626;SDS011;3349;49.830;8.748;2024-02-21T09:55:07;12.40;;;5.35;;
6626;SDS011;3349;49.830;8.748;2024-02-21T09:57:37;9.52;;;4.82;;
6626;SDS011;3349;49.830;8.748;2024-02-21T10:00:05;11.40;;;5.00;;
6626;SDS011;3349;49.830;8.748;2024-02-21T10:02:33;9.52;;;5.13;;
6626;SDS011;3349;49.830;8.748;2024-02-21T10:05:00;10.00;;;5.03;;
6626;SDS011;3349;49.830;8.748;2024-02-21T10:07:30;12.23;;;4.65;;
6626;SDS011;3349;49.830;8.748;2024-02-21T10:10:00;11.98;;;5.05;;
6626;SDS011;3349;49.830;8.748;2024-02-21T10:12:27;16.20;;;4.68;;
6626;SDS011;3349;49.830;8.748;2024-02-21T10:14:59;12.90;;;4.65;;
6626;SDS011;3349;49.830;8.748;2024-02-21T10:17:26;12.82;;;4.68;;
6626;SDS011;3349;49.830;8.748;2024-02-21T10:19:53;11.02;;;4.80;;
6626;SDS011;3349;49.830;8.748;2024-02-21T10:22:20;10.48;;;4.68;;
6626;SDS011;3349;49.830;8.748;2024-02-21T10:24:48;10.65;;;4.32;;
6626;SDS011;3349;49.830;8.748;2024-02-21T10:27:14;10.35;;;4.10;;
6626;SDS011;3349;49.830;8.748;2024-02-21T10:29:41;16.75;;;4.18;;
6626;SDS011;3349;49.830;8.748;2024-02-21T10:32:08;12.63;;;5.05;;
6626;SDS011;3349;49.830;8.748;2024-02-21T10:34:37;10.35;;;3.63;;
6626;SDS011;3349;49.830;8.748;2024-02-21T10:37:05;10.65;;;4.47;;
6626;SDS011;3349;49.830;8.748;2024-02-21T10:39:32;12.27;;;4.57;;
6626;SDS011;3349;49.830;8.748;2024-02-21T10:42:02;13.27;;;5.20;;
6626;SDS011;3349;49.830;8.748;2024-02-21T10:44:30;11.38;;;5.53;;
6626;SDS011;3349;49.830;8.748;2024-02-21T10:46:58;10.20;;;5.65;;
6626;SDS011;3349;49.830;8.748;2024-02-21T10:49:25;11.20;;;4.90;;
6626;SDS011;3349;49.830;8.748;2024-02-21T10:51:54;12.90;;;4.82;;
6626;SDS011;3349;49.830;8.748;2024-02-21T10:57:07;11.00;;;5.00;;
6626;SDS011;3349;49.830;8.748;2024-02-21T10:59:37;13.27;;;4.97;;
6626;SDS011;3349;49.830;8.748;2024-02-21T11:02:07;10.32;;;5.07;;
6626;SDS011;3349;49.830;8.748;2024-02-21T11:04:34;11.23;;;5.18;;
6626;SDS011;3349;49.830;8.748;2024-02-21T11:07:02;13.93;;;5.93;;
6626;SDS011;3349;49.830;8.748;2024-02-21T11:09:31;12.95;;;5.00;;
6626;SDS011;3349;49.830;8.748;2024-02-21T11:11:58;14.32;;;5.70;;
6626;SDS011;3349;49.830;8.748;2024-02-21T11:14:30;13.15;;;5.28;;
6626;SDS011;3349;49.830;8.748;2024-02-21T11:17:00;16.77;;;6.03;;
6626;SDS011;3349;49.830;8.748;2024-02-21T11:19:28;15.52;;;5.65;;
6626;SDS011;3349;49.830;8.748;2024-02-21T11:21:56;11.35;;;5.57;;
6626;SDS011;3349;49.830;8.748;2024-02-21T11:24:27;11.45;;;5.60;;
6626;SDS011;3349;49.830;8.748;2024-02-21T11:26:54;11.32;;;5.35;;
6626;SDS011;3349;49.830;8.748;2024-02-21T11:29:25;12.80;;;5.85;;
6626;SDS011;3349;49.830;8.748;2024-02-21T11:31:53;14.98;;;6.03;;
6626;SDS011;3349;49.830;8.748;2024-02-21T11:34:19;13.27;;;6.72;;
6626;SDS011;3349;49.830;8.748;2024-02-21T11:36:46;15.80;;;5.65;;
6626;SDS011;3349;49.830;8.748;2024-02-21T11:39:21;13.10;;;5.75;;
6626;SDS011;3349;49.830;8.748;2024-02-21T11:42:00;11.45;;;5.65;;
6626;SDS011;3349;49.830;8.748;2024-02-21T11:44:27;13.02;;;5.30;;
6626;SDS011;3349;49.830;8.748;2024-02-21T11:46:55;15.05;;;5.20;;
6626;SDS011;3349;49.830;8.748;2024-02-21T11:49:24;12.10;;;5.25;;
6626;SDS011;3349;49.830;8.748;2024-02-21T11:51:57;12.70;;;5.35;;
6626;SDS011;3349;49.830;8.748;2024-02-21T11:54:25;10.70;;;5.07;;
6626;SDS011;3349;49.830;8.748;2024-02-21T11:56:51;11.82;;;5.28;;
6626;SDS011;3349;49.830;8.748;2024-02-21T11:59:18;12.50;;;5.05;;
6626;SDS011;3349;49.830;8.748;2024-02-21T12:01:44;10.88;;;4.75;;
6626;SDS011;3349;49.830;8.748;2024-02-21T12:04:13;11.48;;;5.13;;
6626;SDS011;3349;49.830;8.748;2024-02-21T12:06:42;10.43;;;5.65;;
6626;SDS011;3349;49.830;8.748;2024-02-21T12:09:09;13.18;;;4.68;;
6626;SDS011;3349;49.830;8.748;2024-02-21T12:11:36;10.57;;;4.95;;
6626;SDS011;3349;49.830;8.748;2024-02-21T12:14:03;10.80;;;4.68;;
6626;SDS011;3349;49.830;8.748;2024-02-21T12:16:30;6.50;;;3.90;;
6626;SDS011;3349;49.830;8.748;2024-02-21T12:18:57;11.00;;;4.28;;
6626;SDS011;3349;49.830;8.748;2024-02-21T12:21:25;7.53;;;3.67;;
6626;SDS011;3349;49.830;8.748;2024-02-21T12:23:53;12.85;;;4.63;;
6626;SDS011;3349;49.830;8.748;2024-02-21T12:26:20;10.23;;;4.68;;
6626;SDS011;3349;49.830;8.748;2024-02-21T12:28:47;9.70;;;3.75;;
6626;SDS011;3349;49.830;8.748;2024-02-21T12:31:13;13.07;;;3.97;;
6626;SDS011;3349;49.830;8.748;2024-02-21T12:33:41;11.05;;;4.82;;
6626;SDS011;3349;49.830;8.748;2024-02-21T12:36:08;12.43;;;3.90;;
6626;SDS011;3349;49.830;8.748;2024-02-21T12:38:36;8.68;;;3.95;;
6626;SDS011;3349;49.830;8.748;2024-02-21T12:41:03;11.85;;;4.03;;
6626;SDS011;3349;49.830;8.748;2024-02-21T12:43:29;6.70;;;3.92;;
6626;SDS011;3349;49.830;8.748;2024-02-21T12:45:56;9.73;;;3.65;;
6626;SDS011;3349;49.830;8.748;2024-02-21T12:48:23;8.80;;;3.88;;
6626;SDS011;3349;49.830;8.748;2024-02-21T12:50:50;7.90;;;4.50;;
6626;SDS011;3349;49.830;8.748;2024-02-21T12:53:17;10.02;;;3.80;;
6626;SDS011;3349;49.830;8.748;2024-02-21T12:55:45;11.13;;;3.60;;
6626;SDS011;3349;49.830;8.748;2024-02-21T12:58:12;8.95;;;4.22;;
6626;SDS011;3349;49.830;8.748;2024-02-21T13:00:39;9.57;;;4.57;;
6626;SDS011;3349;49.830;8.748;2024-02-21T13:03:06;11.25;;;3.80;;
6626;SDS011;3349;49.830;8.748;2024-02-21T13:05:34;9.80;;;3.58;;
6626;SDS011;3349;49.830;8.748;2024-02-21T13:08:01;11.60;;;4.03;;
6626;SDS011;3349;49.830;8.748;2024-02-21T13:10:28;12.52;;;3.70;;
6626;SDS011;3349;49.830;8.748;2024-02-21T13:12:56;7.13;;;3.30;;
6626;SDS011;3349;49.830;8.748;2024-02-21T13:15:23;7.88;;;3.28;;
6626;SDS011;3349;49.830;8.748;2024-02-21T13:17:49;8.85;;;3.88;;
6626;SDS011;3349;49.830;8.748;2024-02-21T13:20:16;7.45;;;3.33;;
6626;SDS011;3349;49.830;8.748;2024-02-21T13:22:43;7.28;;;3.17;;
6626;SDS011;3349;49.830;8.748;2024-02-21T13:25:09;10.13;;;3.72;;
6626;SDS011;3349;49.830;8.748;2024-02-21T13:27:40;9.82;;;3.80;;
6626;SDS011;3349;49.830;8.748;2024-02-21T13:30:08;8.10;;;3.63;;
6626;SDS011;3349;49.830;8.748;2024-02-21T13:32:36;10.35;;;3.53;;
6626;SDS011;3349;49.830;8.748;2024-02-21T13:35:03;9.35;;;3.58;;
6626;SDS011;3349;49.830;8.748;2024-02-21T13:37:30;7.68;;;3.85;;
6626;SDS011;3349;49.830;8.748;2024-02-21T13:39:57;8.77;;;3.88;;
6626;SDS011;3349;49.830;8.748;2024-02-21T13:42:24;13.40;;;4.00;;
6626;SDS011;3349;49.830;8.748;2024-02-21T13:44:52;10.18;;;3.78;;
6626;SDS011;3349;49.830;8.748;2024-02-21T13:47:20;8.63;;;4.15;;
6626;SDS011;3349;49.830;8.748;2024-02-21T13:49:47;8.70;;;3.95;;
6626;SDS011;3349;49.830;8.748;2024-02-21T13:52:15;11.85;;;3.78;;
6626;SDS011;3349;49.830;8.748;2024-02-21T13:54:42;8.77;;;3.88;;
6626;SDS011;3349;49.830;8.748;2024-02-21T13:57:08;8.80;;;4.05;;
6626;SDS011;3349;49.830;8.748;2024-02-21T13:59:35;9.75;;;3.92;;
6626;SDS011;3349;49.830;8.748;2024-02-21T14:02:02;12.80;;;4.00;;
6626;SDS011;3349;49.830;8.748;2024-02-21T14:04:30;9.60;;;4.20;;
6626;SDS011;3349;49.830;8.748;2024-02-21T14:06:57;10.50;;;4.65;;
6626;SDS011;3349;49.830;8.748;2024-02-21T14:09:23;12.00;;;4.45;;
6626;SDS011;3349;49.830;8.748;2024-02-21T14:11:50;8.75;;;3.90;;
6626;SDS011;3349;49.830;8.748;2024-02-21T14:14:17;16.70;;;6.28;;
6626;SDS011;3349;49.830;8.748;2024-02-21T14:16:43;8.80;;;4.15;;
6626;SDS011;3349;49.830;8.748;2024-02-21T14:19:12;11.70;;;4.68;;
6626;SDS011;3349;49.830;8.748;2024-02-21T14:21:40;12.48;;;4.22;;
6626;SDS011;3349;49.830;8.748;2024-02-21T14:24:07;8.23;;;3.42;;
6626;SDS011;3349;49.830;8.748;2024-02-21T14:26:34;11.45;;;3.70;;
6626;SDS011;3349;49.830;8.748;2024-02-21T14:29:01;11.82;;;4.05;;
6626;SDS011;3349;49.830;8.748;2024-02-21T14:31:28;9.52;;;3.13;;
6626;SDS011;3349;49.830;8.748;2024-02-21T14:33:57;9.02;;;3.65;;
6626;SDS011;3349;49.830;8.748;2024-02-21T14:36:24;10.38;;;4.00;;
6626;SDS011;3349;49.830;8.748;2024-02-21T14:38:53;11.50;;;3.60;;
6626;SDS011;3349;49.830;8.748;2024-02-21T14:41:20;8.13;;;3.78;;
6626;SDS011;3349;49.830;8.748;2024-02-21T14:43:46;8.32;;;3.72;;
6626;SDS011;3349;49.830;8.748;2024-02-21T14:46:13;10.80;;;3.30;;
6626;SDS011;3349;49.830;8.748;2024-02-21T14:48:39;11.27;;;3.45;;
6626;SDS011;3349;49.830;8.748;2024-02-21T14:51:06;8.13;;;3.42;;
6626;SDS011;3349;49.830;8.748;2024-02-21T14:53:33;8.25;;;3.85;;
6626;SDS011;3349;49.830;8.748;2024-02-21T14:56:01;7.82;;;3.63;;
6626;SDS011;3349;49.830;8.748;2024-02-21T14:58:27;11.75;;;3.42;;
6626;SDS011;3349;49.830;8.748;2024-02-21T15:00:56;6.25;;;3.55;;
6626;SDS011;3349;49.830;8.748;2024-02-21T15:03:22;8.65;;;3.20;;
6626;SDS011;3349;49.830;8.748;2024-02-21T15:05:52;6.97;;;3.00;;